createdAt,value
2022-09-25T00:00:06.824Z,7.28
2022-09-25T00:10:08.027Z,8.57
2022-09-25T00:20:10.145Z,11.73
2022-09-25T00:30:13.163Z,8.20
2022-09-25T00:40:27.747Z,11.35
2022-09-25T00:50:31.861Z,9.63
2022-09-25T01:00:34.254Z,10.80
2022-09-25T01:10:35.742Z,13.05
2022-09-25T01:20:58.327Z,13.70
2022-09-25T01:31:15.033Z,13.43
2022-09-25T01:42:00.290Z,19.05
2022-09-25T01:52:05.568Z,15.63
2022-09-25T02:02:11.885Z,12.40
2022-09-25T02:12:21.464Z,14.32
2022-09-25T02:22:33.020Z,12.85
2022-09-25T02:32:35.485Z,15.60
2022-09-25T02:42:59.093Z,15.43
2022-09-25T02:53:21.804Z,21.52
2022-09-25T03:03:26.149Z,19.80
2022-09-25T03:13:34.223Z,24.05
2022-09-25T03:23:36.066Z,26.30
2022-09-25T03:33:40.563Z,24.42
2022-09-25T03:43:44.224Z,22.15
2022-09-25T03:53:45.823Z,21.27
2022-09-25T04:03:48.948Z,22.83
2022-09-25T04:13:50.562Z,26.25
2022-09-25T04:24:11.987Z,25.02
2022-09-25T04:34:13.925Z,25.70
2022-09-25T04:44:15.485Z,31.08
2022-09-25T04:54:18.084Z,30.70
2022-09-25T05:04:19.527Z,29.67
2022-09-25T05:14:21.167Z,35.95
2022-09-25T05:24:22.925Z,30.42
2022-09-25T05:34:24.443Z,33.28
2022-09-25T05:44:26.620Z,28.20
2022-09-25T05:54:28.586Z,24.83
2022-09-25T06:04:30.066Z,21.90
2022-09-25T06:14:32.122Z,19.48
2022-09-25T06:24:33.769Z,18.15
2022-09-25T06:34:34.962Z,19.10
2022-09-25T06:44:36.527Z,17.40
2022-09-25T06:54:40.575Z,20.00
2022-09-25T07:04:47.266Z,19.63
2022-09-25T07:14:49.188Z,17.00
2022-09-25T07:24:51.410Z,17.58
2022-09-25T07:34:52.970Z,19.77
2022-09-25T07:44:54.729Z,17.75
2022-09-25T07:54:56.382Z,19.00
2022-09-25T08:04:58.067Z,15.80
2022-09-25T08:14:59.950Z,17.88
2022-09-25T08:25:05.843Z,15.98
2022-09-25T08:35:08.129Z,14.27
2022-09-25T08:45:36.348Z,16.40
2022-09-25T08:56:01.189Z,12.63
2022-09-25T09:06:15.983Z,16.55
2022-09-25T09:16:46.840Z,18.40
2022-09-25T09:27:06.507Z,16.05
2022-09-25T09:37:22.105Z,16.42
2022-09-25T09:47:53.469Z,15.73
2022-09-25T09:57:57.170Z,17.15
2022-09-25T10:08:01.532Z,19.20
2022-09-25T10:18:05.244Z,15.80
2022-09-25T10:28:30.128Z,16.10
2022-09-25T10:38:37.249Z,17.73
2022-09-25T10:48:59.569Z,17.93
2022-09-25T10:59:03.885Z,18.77
2022-09-25T11:09:21.792Z,16.85
2022-09-25T11:19:41.024Z,17.23
2022-09-25T11:29:48.690Z,15.05
2022-09-25T11:40:41.248Z,14.52
2022-09-25T11:51:08.127Z,11.73
2022-09-25T12:01:32.917Z,18.60
2022-09-25T12:12:07.270Z,25.83
2022-09-25T12:22:13.068Z,23.00
2022-09-25T12:32:30.843Z,19.45
2022-09-25T12:42:57.709Z,18.93
2022-09-25T12:53:24.550Z,12.52
2022-09-25T13:03:51.948Z,8.30
2022-09-25T13:13:57.110Z,6.80
2022-09-25T13:24:02.008Z,6.95
2022-09-25T13:34:15.789Z,8.15
2022-09-25T13:44:45.373Z,11.48
2022-09-25T13:54:47.106Z,8.15
2022-09-25T14:04:50.342Z,4.47
2022-09-25T14:15:17.414Z,7.00
2022-09-25T14:25:46.753Z,7.15
2022-09-25T14:36:00.906Z,14.75
2022-09-25T14:46:22.579Z,4.55
2022-09-25T14:56:29.646Z,10.48
2022-09-25T15:16:54.605Z,6.22
2022-09-25T15:27:05.589Z,10.63
2022-09-25T15:37:33.307Z,6.78
2022-09-25T15:47:59.768Z,5.30
2022-09-25T15:58:15.689Z,5.47
2022-09-25T16:08:38.264Z,4.18
2022-09-25T16:18:43.009Z,25.35
2022-09-25T16:28:59.909Z,7.70
2022-09-25T16:39:17.310Z,7.88
2022-09-25T16:49:23.207Z,7.37
2022-09-25T16:59:28.084Z,6.93
2022-09-25T17:09:32.881Z,5.68
2022-09-25T17:19:34.364Z,5.28
2022-09-25T17:29:38.309Z,5.43
2022-09-25T17:39:40.264Z,8.95
2022-09-25T17:49:41.585Z,7.80
2022-09-25T17:59:42.947Z,14.25
2022-09-25T18:09:44.507Z,15.07
2022-09-25T18:20:04.409Z,12.60
2022-09-25T18:30:05.786Z,12.18
2022-09-25T18:40:08.129Z,10.35
2022-09-25T18:50:10.548Z,9.43
2022-09-25T19:00:12.489Z,7.53
2022-09-25T19:10:14.707Z,10.98
2022-09-25T19:20:16.126Z,12.52
2022-09-25T19:30:17.983Z,11.00
2022-09-25T19:40:40.038Z,17.00
2022-09-25T19:50:44.425Z,10.02
2022-09-25T20:00:46.028Z,10.43
2022-09-25T20:10:48.026Z,10.25
2022-09-25T20:20:53.970Z,10.43
2022-09-25T20:30:55.828Z,10.70
